Time;durP1;ratioP1;P1;durP2;ratioP2;P2;SDS_P1;SDS_P2;PMS_P1;PMS_P2;Temp;Humidity;BMP_temperature;BMP_pressure;BME280_temperature;BME280_humidity;BME280_pressure;Samples;Min_cycle;Max_cycle;Signal;HPM_P1;HPM_P2
2023/11/14 00:02:48;;;;;;;;;6.40;6.40;;;;;13.16;100.00;97307.72;6177864;28;98483;-71
2023/11/14 00:05:51;;;;;;;;;5.00;5.00;;;;;13.20;100.00;97304.19;6187347;28;97312;-72
2023/11/14 00:08:55;;;;;;;;;5.00;4.00;;;;;13.23;100.00;97297.44;6184784;28;98614;-72
2023/11/14 00:11:59;;;;;;;;;9.00;7.80;;;;;13.22;100.00;97309.34;6186387;28;96680;-72
2023/11/14 00:15:04;;;;;;;;;8.00;7.50;;;;;13.29;100.00;97307.94;6187556;28;97338;-71
2023/11/14 00:18:08;;;;;;;;;8.60;7.60;;;;;13.29;100.00;97302.53;6187595;28;96435;-71
2023/11/14 00:21:11;;;;;;;;;9.00;9.00;;;;;13.26;100.00;97300.41;6187126;28;96733;-72
2023/11/14 00:24:15;;;;;;;;;7.00;7.00;;;;;13.25;100.00;97292.53;6203201;28;98679;-72
2023/11/14 00:27:19;;;;;;;;;11.00;10.60;;;;;13.18;100.00;97295.56;6169106;28;96398;-72
2023/11/14 00:30:24;;;;;;;;;9.00;8.40;;;;;13.14;100.00;97278.28;6178512;28;96792;-72
2023/11/14 00:33:27;;;;;;;;;9.40;8.80;;;;;13.07;100.00;97260.66;6185150;28;96775;-71
2023/11/14 00:36:31;;;;;;;;;9.00;7.40;;;;;13.12;100.00;97261.50;6185764;28;96889;-71
2023/11/14 00:39:34;;;;;;;;;9.00;8.25;;;;;13.10;100.00;97266.31;6187817;28;96297;-72
2023/11/14 00:42:37;;;;;;;;;9.20;8.60;;;;;13.08;100.00;97255.00;6182147;28;98809;-71
2023/11/14 00:45:42;;;;;;;;;9.00;8.00;;;;;13.05;100.00;97258.22;6188408;28;96309;-69
2023/11/14 00:48:46;;;;;;;;;8.80;8.80;;;;;13.17;100.00;97236.31;6204716;28;96553;-72
2023/11/14 00:51:49;;;;;;;;;12.60;12.60;;;;;13.30;100.00;97246.50;6173007;28;97411;-72
2023/11/14 00:54:53;;;;;;;;;8.60;8.00;;;;;13.37;100.00;97250.53;6188593;28;96500;-72
2023/11/14 00:57:56;;;;;;;;;8.00;8.00;;;;;13.45;100.00;97260.78;6203462;28;96384;-72
2023/11/14 01:01:01;;;;;;;;;10.00;9.00;;;;;13.55;100.00;97269.94;6186576;28;97546;-72
2023/11/14 01:04:05;;;;;;;;;8.40;7.60;;;;;13.58;100.00;97266.69;6185210;28;99472;-71
2023/11/14 01:07:10;;;;;;;;;7.00;6.20;;;;;13.65;100.00;97278.81;6184594;28;96671;-71
2023/11/14 01:10:14;;;;;;;;;9.00;8.00;;;;;13.79;100.00;97292.53;6186056;28;96477;-71
2023/11/14 01:13:17;;;;;;;;;9.40;9.00;;;;;13.86;100.00;97291.13;6182325;28;99096;-71
2023/11/14 01:16:22;;;;;;;;;8.60;8.00;;;;;13.96;100.00;97322.75;6174193;28;98154;-71
2023/11/14 01:19:25;;;;;;;;;8.00;7.40;;;;;14.01;100.00;97325.44;6176417;28;96781;-71
2023/11/14 01:22:29;;;;;;;;;7.00;7.00;;;;;14.02;100.00;97324.34;6178765;28;96334;-72
2023/11/14 01:25:32;;;;;;;;;7.60;7.40;;;;;14.12;100.00;97353.28;6187188;28;97114;-72
2023/11/14 01:28:35;;;;;;;;;9.00;9.00;;;;;14.22;100.00;97364.84;6187459;28;96327;-72
2023/11/14 01:31:40;;;;;;;;;15.00;14.40;;;;;14.30;100.00;97396.78;6186086;28;96877;-72
2023/11/14 01:34:44;;;;;;;;;25.00;24.00;;;;;14.28;100.00;97458.59;6165717;28;98475;-72
2023/11/14 01:37:48;;;;;;;;;31.00;27.00;;;;;14.04;100.00;97427.81;6168216;28;97267;-72
2023/11/14 01:40:53;;;;;;;;;23.40;22.40;;;;;13.79;100.00;97398.16;6157123;28;96861;-72
2023/11/14 01:43:56;;;;;;;;;21.40;20.00;;;;;13.48;100.00;97381.25;6187183;28;96572;-72
2023/11/14 01:47:01;;;;;;;;;16.00;16.00;;;;;13.29;100.00;97370.19;6169045;28;98556;-72
2023/11/14 01:50:07;;;;;;;;;21.40;20.00;;;;;13.16;100.00;97369.97;6177405;28;96721;-72
2023/11/14 01:53:10;;;;;;;;;20.80;19.80;;;;;13.12;100.00;97356.19;6180500;28;98458;-72
2023/11/14 01:56:14;;;;;;;;;19.00;18.00;;;;;13.12;100.00;97356.19;6202481;28;97214;-72
2023/11/14 01:59:17;;;;;;;;;15.00;14.00;;;;;13.12;100.00;97369.72;6184129;28;96755;-72
2023/11/14 02:02:23;;;;;;;;;12.20;12.00;;;;;13.12;100.00;97367.00;6179959;28;96691;-66
2023/11/14 02:05:29;;;;;;;;;10.00;9.00;;;;;13.12;100.00;97353.47;6220051;22;97690;-71
2023/11/14 02:08:33;;;;;;;;;15.00;13.00;;;;;13.25;100.00;97328.53;6170207;28;96305;-72
2023/11/14 02:11:36;;;;;;;;;13.00;12.00;;;;;13.26;100.00;97324.75;6191507;28;96436;-72
2023/11/14 02:14:41;;;;;;;;;9.60;9.60;;;;;13.30;100.00;97350.16;6174109;28;96986;-71
2023/11/14 02:17:46;;;;;;;;;10.00;10.00;;;;;13.26;100.00;97345.59;6178711;28;96687;-71
2023/11/14 02:20:49;;;;;;;;;11.00;10.00;;;;;13.25;100.00;97309.59;6176394;28;97588;-72
2023/11/14 02:23:53;;;;;;;;;10.50;9.00;;;;;13.25;100.00;97304.19;6187869;28;96355;-72
2023/11/14 02:26:58;;;;;;;;;8.40;7.40;;;;;13.19;100.00;97320.72;6169284;28;98030;-70
2023/11/14 02:30:02;;;;;;;;;8.00;8.00;;;;;13.24;100.00;97331.53;6188643;28;96796;-72
2023/11/14 02:33:06;;;;;;;;;8.00;8.00;;;;;13.23;100.00;97327.19;6173768;28;96374;-71
2023/11/14 02:36:10;;;;;;;;;6.00;5.50;;;;;13.24;100.00;97342.38;6187851;28;96746;-71
2023/11/14 02:39:13;;;;;;;;;5.40;5.00;;;;;13.25;100.00;97350.19;6186078;28;96943;-72
2023/11/14 02:42:18;;;;;;;;;5.50;5.50;;;;;13.37;100.00;97364.22;6179708;28;99668;-71
2023/11/14 02:45:22;;;;;;;;;6.00;5.40;;;;;13.39;100.00;97378.28;6185999;28;96872;-67
2023/11/14 02:48:25;;;;;;;;;5.50;5.25;;;;;13.46;100.00;97361.75;6188418;28;96291;-72
2023/11/14 02:51:28;;;;;;;;;4.40;4.40;;;;;13.57;100.00;97341.69;6178790;28;97382;-72
2023/11/14 02:54:33;;;;;;;;;5.00;5.00;;;;;13.52;100.00;97317.34;6207196;28;96386;-72
2023/11/14 02:57:38;;;;;;;;;5.75;5.75;;;;;13.53;100.00;97304.59;6181019;28;96757;-72
2023/11/14 03:00:42;;;;;;;;;5.40;4.40;;;;;13.64;100.00;97295.31;6190307;28;96366;-72
2023/11/14 03:03:46;;;;;;;;;9.00;8.00;;;;;13.78;100.00;97334.25;6172326;28;98923;-72
2023/11/14 03:06:49;;;;;;;;;5.75;5.75;;;;;13.87;100.00;97359.66;6191316;28;96230;-72
2023/11/14 03:09:52;;;;;;;;;4.00;4.00;;;;;13.87;100.00;97349.66;6189595;28;96415;-71
2023/11/14 03:12:57;;;;;;;;;7.00;6.40;;;;;13.88;100.00;97297.06;6197347;28;98557;-71
2023/11/14 03:16:02;;;;;;;;;3.20;3.20;;;;;13.94;100.00;97318.69;6197296;28;97340;-71
2023/11/14 03:19:06;;;;;;;;;6.00;6.00;;;;;14.09;100.00;97321.31;6189893;28;96955;-71
2023/11/14 03:22:10;;;;;;;;;3.60;3.60;;;;;14.13;100.00;97316.94;6186376;28;97037;-71
2023/11/14 03:25:13;;;;;;;;;3.00;3.00;;;;;14.06;100.00;97305.63;6173077;28;96956;-71
2023/11/14 03:28:18;;;;;;;;;2.00;2.00;;;;;14.10;100.00;97323.75;6173406;28;96551;-71
2023/11/14 03:31:23;;;;;;;;;3.00;2.00;;;;;14.17;100.00;97345.13;6173311;28;96935;-71
2023/11/14 03:34:26;;;;;;;;;0.00;0.00;;;;;14.17;100.00;97347.81;6156732;28;96660;-71
2023/11/14 03:37:30;;;;;;;;;1.00;1.00;;;;;14.15;100.00;97350.00;6187937;28;97583;-71
2023/11/14 03:40:34;;;;;;;;;0.00;0.00;;;;;14.08;100.00;97363.84;6188546;28;97449;-70
2023/11/14 03:43:38;;;;;;;;;2.00;2.00;;;;;14.06;100.00;97367.94;6197110;28;96438;-71
2023/11/14 03:46:42;;;;;;;;;2.00;2.00;;;;;14.04;100.00;97389.09;6176433;28;96840;-71
2023/11/14 03:49:46;;;;;;;;;2.60;2.00;;;;;14.10;100.00;97379.84;6163926;28;98426;-70
2023/11/14 03:52:50;;;;;;;;;1.00;1.00;;;;;14.06;100.00;97381.50;6195443;28;97296;-71
2023/11/14 03:55:53;;;;;;;;;1.00;1.00;;;;;14.07;100.00;97388.53;6207047;28;96719;-71
2023/11/14 03:58:58;;;;;;;;;1.00;1.00;;;;;14.06;100.00;97378.78;6215679;28;96541;-71
2023/11/14 04:02:01;;;;;;;;;2.00;2.00;;;;;14.09;100.00;97378.22;6213560;28;96584;-68
2023/11/14 04:05:06;;;;;;;;;1.00;1.00;;;;;14.14;100.00;97386.31;6193309;28;97206;-71
2023/11/14 04:08:09;;;;;;;;;2.60;2.60;;;;;14.14;100.00;97383.59;6196518;28;97131;-71
2023/11/14 04:11:13;;;;;;;;;1.00;1.00;;;;;14.12;100.00;97386.59;6190954;28;96317;-71
2023/11/14 04:14:19;;;;;;;;;1.00;1.00;;;;;14.05;100.00;97402.34;6156536;28;99214;-71
2023/11/14 04:17:22;;;;;;;;;1.00;1.00;;;;;14.08;100.00;97396.38;6191014;28;96568;-71
2023/11/14 04:20:26;;;;;;;;;1.40;1.40;;;;;14.03;100.00;97401.81;6172688;28;97621;-71
2023/11/14 04:23:29;;;;;;;;;1.00;1.00;;;;;14.00;100.00;97394.25;6214548;28;96343;-71
2023/11/14 04:26:33;;;;;;;;;1.80;1.00;;;;;13.96;100.00;97397.81;6189004;28;96485;-71
2023/11/14 04:29:38;;;;;;;;;3.60;3.60;;;;;13.88;100.00;97405.41;6190882;28;98963;-71
2023/11/14 04:32:41;;;;;;;;;4.00;3.67;;;;;13.79;100.00;97392.72;6181828;28;96972;-64
2023/11/14 04:35:44;;;;;;;;;2.00;2.00;;;;;13.79;100.00;97398.16;6200130;28;96765;-64
2023/11/14 04:38:49;;;;;;;;;2.00;2.00;;;;;13.71;100.00;97399.56;6189272;28;97750;-63
2023/11/14 04:41:53;;;;;;;;;2.00;2.00;;;;;13.80;100.00;97407.91;6201842;28;96722;-63
2023/11/14 04:44:58;;;;;;;;;2.00;2.00;;;;;13.87;100.00;97409.25;6198469;28;96364;-64
2023/11/14 04:48:01;;;;;;;;;1.40;1.40;;;;;13.88;100.00;97421.66;6207684;28;97356;-65
2023/11/14 04:51:05;;;;;;;;;2.60;2.60;;;;;13.88;100.00;97416.25;6202982;28;97018;-63
2023/11/14 04:54:08;;;;;;;;;1.00;1.00;;;;;13.88;100.00;97424.38;6207863;28;96401;-64
2023/11/14 04:57:12;;;;;;;;;2.00;2.00;;;;;13.93;100.00;97437.09;6207391;28;96828;-64
2023/11/14 05:00:17;;;;;;;;;1.50;1.50;;;;;14.01;100.00;97433.00;6196152;28;96427;-63
2023/11/14 05:03:20;;;;;;;;;3.00;3.00;;;;;14.09;100.00;97445.97;6215519;28;96215;-65
2023/11/14 05:06:24;;;;;;;;;2.60;2.60;;;;;14.17;100.00;97453.53;6183654;28;98380;-64
2023/11/14 05:09:28;;;;;;;;;6.60;5.60;;;;;14.18;100.00;97457.81;6182089;28;96392;-64
2023/11/14 05:12:31;;;;;;;;;5.00;5.00;;;;;14.19;100.00;97467.59;6211361;28;96865;-63
2023/11/14 05:15:36;;;;;;;;;2.00;1.00;;;;;14.19;100.00;97467.59;6209384;28;96865;-63
2023/11/14 05:18:39;;;;;;;;;2.00;2.00;;;;;14.19;100.00;97475.72;6184706;28;96686;-64
2023/11/14 05:21:42;;;;;;;;;3.00;2.50;;;;;14.18;100.00;97490.34;6175404;28;97040;-63
2023/11/14 05:24:45;;;;;;;;;1.00;1.00;;;;;14.20;100.00;97491.72;6206977;28;96268;-66
2023/11/14 05:27:49;;;;;;;;;1.00;1.00;;;;;14.18;100.00;97495.78;6215682;28;96349;-64
2023/11/14 05:30:54;;;;;;;;;1.00;1.00;;;;;14.17;100.00;97491.47;6203770;28;97409;-64
2023/11/14 05:33:57;;;;;;;;;1.00;1.00;;;;;14.25;100.00;97491.69;6195198;28;96817;-64
2023/11/14 05:37:01;;;;;;;;;2.00;1.40;;;;;14.17;100.00;97499.59;6186664;28;98337;-63
2023/11/14 05:40:06;;;;;;;;;2.00;2.00;;;;;14.19;100.00;97497.41;6197315;28;96782;-63
2023/11/14 05:43:10;;;;;;;;;2.00;2.00;;;;;14.15;100.00;97493.63;6208088;28;96601;-71
2023/11/14 05:46:15;;;;;;;;;2.00;2.00;;;;;14.01;100.00;97481.78;6172247;28;97201;-72
2023/11/14 05:49:18;;;;;;;;;3.00;2.00;;;;;14.12;100.00;97491.47;6178430;28;98443;-71
2023/11/14 05:52:21;;;;;;;;;2.00;2.00;;;;;14.33;100.00;97512.78;6179181;28;98946;-71
2023/11/14 05:55:24;;;;;;;;;3.00;3.00;;;;;14.33;100.00;97529.03;6192515;28;96509;-72
2023/11/14 05:58:28;;;;;;;;;0.60;0.60;;;;;14.35;100.00;97536.91;6195186;28;96439;-71
2023/11/14 06:01:32;;;;;;;;;1.50;1.50;;;;;14.36;100.00;97537.72;6190176;28;96382;-72
2023/11/14 06:04:36;;;;;;;;;2.00;2.00;;;;;14.39;100.00;97545.31;6198377;28;96749;-71
2023/11/14 06:07:40;;;;;;;;;0.00;0.00;;;;;14.39;100.00;97564.28;6183157;28;96514;-72
2023/11/14 06:10:43;;;;;;;;;0.20;0.20;;;;;14.53;100.00;97557.16;6205951;28;96588;-72
2023/11/14 06:13:46;;;;;;;;;1.40;1.40;;;;;14.58;100.00;97552.53;6191769;28;96896;-71
2023/11/14 06:16:51;;;;;;;;;1.00;1.00;;;;;14.53;100.00;97563.41;6192197;28;96952;-72
2023/11/14 06:19:54;;;;;;;;;2.00;2.00;;;;;14.45;100.00;97563.19;6196583;28;96314;-72
2023/11/14 06:22:58;;;;;;;;;1.00;1.00;;;;;14.44;100.00;97570.50;6199276;28;96531;-72
2023/11/14 06:26:02;;;;;;;;;2.00;2.00;;;;;14.40;100.00;97577.59;6188649;28;96229;-72
2023/11/14 06:29:06;;;;;;;;;3.00;3.00;;;;;14.55;100.00;97579.41;6202188;28;96549;-72
2023/11/14 06:32:10;;;;;;;;;2.00;2.00;;;;;14.63;100.00;97590.47;6188061;28;96356;-71
2023/11/14 06:35:14;;;;;;;;;2.00;2.00;;;;;14.76;100.00;97591.75;6191379;28;96490;-72
2023/11/14 06:38:17;;;;;;;;;1.40;1.40;;;;;14.85;100.00;97592.81;6184992;28;96276;-71
2023/11/14 06:41:21;;;;;;;;;2.00;2.00;;;;;14.88;100.00;97594.97;6174146;28;96343;-70
2023/11/14 06:44:24;;;;;;;;;4.00;4.00;;;;;14.90;100.00;97606.34;6188032;28;96362;-72
2023/11/14 06:47:29;;;;;;;;;2.00;2.00;;;;;14.96;100.00;97624.19;6185932;28;98482;-72
2023/11/14 06:50:32;;;;;;;;;3.40;3.00;;;;;14.92;100.00;97615.00;6193248;28;96993;-72
2023/11/14 06:53:47;;;;;;;;;2.60;2.60;;;;;14.85;100.00;97608.28;6213270;28;96280;-73
2023/11/14 06:56:51;;;;;;;;;3.00;3.00;;;;;14.98;100.00;97629.38;6176779;28;99130;-72
2023/11/14 06:59:54;;;;;;;;;1.40;1.00;;;;;15.06;100.00;97637.72;6212472;28;96478;-72
2023/11/14 07:02:58;;;;;;;;;3.00;3.00;;;;;15.08;100.00;97649.13;6193171;28;98401;-72
2023/11/14 07:06:02;;;;;;;;;2.00;2.00;;;;;14.96;100.00;97651.34;6165388;28;96779;-71
2023/11/14 07:09:06;;;;;;;;;2.20;2.20;;;;;14.98;100.00;97642.94;6198859;28;97099;-72
2023/11/14 07:12:10;;;;;;;;;2.00;2.00;;;;;14.89;100.00;97645.44;6174888;28;99176;-72
2023/11/14 07:15:13;;;;;;;;;2.00;2.00;;;;;14.80;100.00;97646.28;6210667;28;96355;-72
2023/11/14 07:18:18;;;;;;;;;2.80;2.20;;;;;14.75;100.00;97655.28;6191134;28;97494;-72
2023/11/14 07:21:22;;;;;;;;;2.00;2.00;;;;;14.83;100.00;97649.25;6193359;28;96845;-72
2023/11/14 07:24:26;;;;;;;;;3.00;3.00;;;;;14.99;100.00;97652.69;6212370;28;96370;-72
2023/11/14 07:27:29;;;;;;;;;3.00;2.00;;;;;15.63;100.00;97654.47;6177766;28;97411;-72
2023/11/14 07:30:33;;;;;;;;;2.80;2.00;;;;;17.14;100.00;97657.47;6187359;28;96356;-71
2023/11/14 07:33:38;;;;;;;;;2.00;1.00;;;;;19.61;100.00;97648.47;6186559;28;96692;-72
2023/11/14 07:36:41;;;;;;;;;2.00;2.00;;;;;21.03;100.00;97650.97;6171440;28;98823;-72
2023/11/14 07:39:44;;;;;;;;;2.50;2.50;;;;;22.80;100.00;97636.91;6191504;28;96356;-72
2023/11/14 07:42:49;;;;;;;;;2.00;2.00;;;;;25.13;100.00;97643.78;6191419;28;96393;-72
2023/11/14 07:45:52;;;;;;;;;2.00;1.00;;;;;27.10;99.29;97637.44;6173534;28;98754;-71
2023/11/14 07:48:57;;;;;;;;;4.00;3.00;;;;;28.28;91.48;97636.00;6193859;28;98707;-72
2023/11/14 07:52:00;;;;;;;;;2.00;2.00;;;;;29.51;83.83;97635.66;6185361;28;96423;-72
2023/11/14 07:55:05;;;;;;;;;4.00;4.00;;;;;31.00;77.26;97646.44;6193423;28;96628;-72
2023/11/14 07:58:09;;;;;;;;;4.00;3.00;;;;;32.17;69.88;97649.94;6179506;28;96798;-72
2023/11/14 08:01:12;;;;;;;;;1.60;1.60;;;;;32.90;63.64;97654.06;6215886;28;96356;-72
2023/11/14 08:04:17;;;;;;;;;2.50;2.00;;;;;33.36;56.64;97644.91;6198810;28;96346;-72
2023/11/14 08:07:21;;;;;;;;;3.00;3.00;;;;;33.81;56.77;97655.19;6192998;28;96434;-72
2023/11/14 08:10:24;;;;;;;;;1.50;1.00;;;;;34.38;52.79;97654.94;6206588;28;96344;-72
2023/11/14 08:13:28;;;;;;;;;3.00;3.00;;;;;35.30;52.22;97643.06;6201764;28;96944;-73
2023/11/14 08:16:31;;;;;;;;;2.00;2.00;;;;;35.62;44.90;97634.34;6201707;28;96275;-72
2023/11/14 08:19:36;;;;;;;;;1.00;1.00;;;;;36.31;43.57;97659.16;6168311;28;98575;-73
2023/11/14 08:22:42;;;;;;;;;1.00;1.00;;;;;36.74;42.28;97639.72;6209602;28;96659;-72
2023/11/14 08:25:45;;;;;;;;;2.00;2.00;;;;;37.51;40.25;97639.59;6215456;28;96390;-72
2023/11/14 08:28:48;;;;;;;;;2.00;2.00;;;;;37.53;35.98;97633.56;6179554;28;96738;-72
2023/11/14 08:31:53;;;;;;;;;2.40;1.40;;;;;37.38;39.27;97641.47;6197513;28;96865;-73
2023/11/14 08:34:58;;;;;;;;;2.00;2.00;;;;;36.90;36.22;97641.84;6197325;28;96483;-73
2023/11/14 08:38:02;;;;;;;;;1.00;1.00;;;;;36.30;36.61;97643.53;6190959;28;96316;-73
2023/11/14 08:41:19;;;;;;;;;2.00;1.00;;;;;35.92;39.24;97639.22;6155660;28;96669;-73
2023/11/14 08:44:23;;;;;;;;;1.00;1.00;;;;;35.61;41.07;97646.75;6172844;28;96801;-73
2023/11/14 08:47:27;;;;;;;;;1.00;1.00;;;;;35.23;39.30;97631.94;6170866;28;96444;-73
2023/11/14 08:50:35;;;;;;;;;1.00;1.00;;;;;34.65;41.28;97625.16;6186898;28;98448;-73
2023/11/14 08:53:39;;;;;;;;;2.50;1.00;;;;;33.92;42.91;97629.97;6171985;28;97186;-73
2023/11/14 08:56:42;;;;;;;;;2.00;2.00;;;;;33.61;43.33;97631.66;6172897;28;96930;-73
2023/11/14 08:59:46;;;;;;;;;2.00;1.00;;;;;33.96;41.60;97639.16;6200429;28;96481;-73
2023/11/14 09:02:49;;;;;;;;;4.00;4.00;;;;;34.62;42.35;97639.19;6214729;28;96366;-73
2023/11/14 09:05:54;;;;;;;;;2.00;2.00;;;;;34.72;39.48;97627.94;6178559;28;96626;-73
2023/11/14 09:08:57;;;;;;;;;2.00;1.00;;;;;33.89;41.32;97647.56;6194005;28;96600;-73
2023/11/14 09:12:01;;;;;;;;;1.00;1.00;;;;;32.85;42.06;97645.28;6189021;28;96369;-68
2023/11/14 09:15:05;;;;;;;;;1.00;1.00;;;;;32.32;43.91;97634.84;6187802;28;96893;-66
2023/11/14 09:18:10;;;;;;;;;2.00;1.00;;;;;32.25;44.88;97634.84;6187496;28;96718;-67
2023/11/14 09:21:15;;;;;;;;;2.00;2.00;;;;;32.00;44.84;97628.34;6169493;28;96667;-67
2023/11/14 09:24:18;;;;;;;;;2.60;1.60;;;;;31.04;45.26;97643.69;6188399;28;96634;-67
2023/11/14 09:27:22;;;;;;;;;1.00;1.00;;;;;30.12;48.48;97643.59;6169873;28;98619;-67
2023/11/14 09:30:27;;;;;;;;;1.40;1.40;;;;;29.64;53.60;97639.78;6189353;28;96564;-67
2023/11/14 09:33:32;;;;;;;;;1.00;1.00;;;;;29.25;55.81;97648.34;6154031;28;98556;-67
2023/11/14 09:36:37;;;;;;;;;1.40;1.40;;;;;29.19;55.04;97654.59;6169465;28;99717;-67
2023/11/14 09:39:40;;;;;;;;;1.00;1.00;;;;;28.83;56.59;97667.13;6195667;28;96353;-67
2023/11/14 09:42:45;;;;;;;;;2.00;2.00;;;;;28.58;58.60;97652.78;6193868;28;96856;-67
2023/11/14 09:45:50;;;;;;;;;1.00;1.00;;;;;28.46;58.78;97664.03;6211902;28;96401;-67
2023/11/14 09:48:54;;;;;;;;;2.00;1.00;;;;;28.43;58.96;97653.69;6166896;28;98526;-67
2023/11/14 09:52:00;;;;;;;;;1.67;1.67;;;;;28.43;59.57;97654.50;6170172;28;97137;-67
2023/11/14 09:55:05;;;;;;;;;1.00;1.00;;;;;28.18;59.17;97633.84;6187216;28;99120;-67
2023/11/14 09:58:09;;;;;;;;;1.00;1.00;;;;;27.89;62.17;97634.44;6170768;28;98804;-68
2023/11/14 10:01:13;;;;;;;;;3.00;2.00;;;;;27.78;65.06;97664.66;6169274;28;98429;-67
2023/11/14 10:04:16;;;;;;;;;1.40;1.00;;;;;27.25;62.07;97657.94;6204619;28;96556;-66
2023/11/14 10:07:22;;;;;;;;;1.00;1.00;;;;;26.40;63.85;97658.56;6193257;28;96617;-66
2023/11/14 10:10:26;;;;;;;;;1.40;1.40;;;;;26.05;68.84;97652.84;6189048;28;96414;-66
2023/11/14 10:13:30;;;;;;;;;1.00;1.00;;;;;26.19;68.70;97660.75;6199689;28;96648;-67
2023/11/14 10:16:34;;;;;;;;;2.00;2.00;;;;;25.76;69.83;97656.75;6200904;28;96784;-66
2023/11/14 10:19:38;;;;;;;;;1.80;1.80;;;;;26.28;67.74;97667.75;6198148;28;96324;-67
2023/11/14 10:22:51;;;;;;;;;1.00;1.00;;;;;27.31;61.52;97647.38;6181236;28;96611;-71
2023/11/14 10:26:04;;;;;;;;;2.60;2.60;;;;;28.47;59.60;97654.56;6201072;28;96263;-71
2023/11/14 10:29:08;;;;;;;;;1.00;1.00;;;;;29.66;51.56;97654.13;6184457;28;96734;-70
2023/11/14 10:32:14;;;;;;;;;2.00;1.00;;;;;30.28;48.73;97638.59;6183140;28;97995;-71
2023/11/14 10:35:18;;;;;;;;;1.00;0.40;;;;;30.22;46.05;97642.91;6192254;28;99608;-71
2023/11/14 10:38:25;;;;;;;;;1.00;1.00;;;;;29.00;48.56;97657.47;6212694;28;96232;-71
2023/11/14 10:41:28;;;;;;;;;3.00;3.00;;;;;27.55;55.44;97678.44;6199204;28;96367;-71
2023/11/14 10:44:31;;;;;;;;;1.50;1.00;;;;;26.40;62.55;97636.44;6187345;28;96351;-71
2023/11/14 10:47:40;;;;;;;;;1.25;1.25;;;;;24.65;70.37;97650.88;6169621;28;98492;-71
2023/11/14 10:50:43;;;;;;;;;1.20;1.20;;;;;23.80;77.93;97633.31;6171540;28;96629;-71
2023/11/14 10:53:49;;;;;;;;;1.50;1.50;;;;;22.76;83.50;97655.22;6195169;28;96353;-71
2023/11/14 10:56:53;;;;;;;;;1.50;1.50;;;;;22.20;86.80;97651.66;6204154;28;96255;-72
2023/11/14 11:00:08;;;;;;;;;0.75;0.75;;;;;21.33;91.21;97643.81;6185826;28;96549;-71
2023/11/14 11:03:12;;;;;;;;;1.00;1.00;;;;;20.84;94.64;97655.94;6187504;28;96357;-70
2023/11/14 11:06:15;;;;;;;;;2.00;2.00;;;;;21.63;91.58;97683.19;6166211;28;98794;-70
2023/11/14 11:09:23;;;;;;;;;2.00;2.00;;;;;22.99;85.30;97669.47;6184438;28;96496;-71
2023/11/14 11:12:28;;;;;;;;;2.00;2.00;;;;;24.24;78.51;97662.84;6169612;28;96993;-71
2023/11/14 11:15:32;;;;;;;;;2.00;2.00;;;;;25.06;74.21;97657.34;6195859;28;96923;-71
2023/11/14 11:18:38;;;;;;;;;1.60;1.60;;;;;25.84;67.17;97666.06;6213214;28;96607;-71
2023/11/14 11:21:58;;;;;;;;;1.00;1.00;;;;;26.32;66.14;97691.88;6189016;28;96242;-71
2023/11/14 11:25:27;;;;;;;;;1.40;1.40;;;;;26.96;62.82;97680.56;6214453;28;96411;-72
2023/11/14 11:28:35;;;;;;;;;3.00;3.00;;;;;27.10;58.79;97656.00;6198378;28;97099;-72
2023/11/14 11:32:00;;;;;;;;;3.00;2.20;;;;;26.48;61.02;97659.56;6207678;28;96834;-72
2023/11/14 11:35:27;;;;;;;;;3.60;2.60;;;;;25.23;68.86;97641.34;6172513;28;96671;-71
2023/11/14 11:38:30;;;;;;;;;1.40;1.40;;;;;24.22;74.87;97647.81;6190208;28;96367;-71
2023/11/14 11:41:54;;;;;;;;;2.00;2.00;;;;;22.99;81.09;97662.03;6181041;28;96364;-71
2023/11/14 11:44:58;;;;;;;;;3.00;2.00;;;;;22.08;85.21;97662.53;6197296;28;96726;-71
2023/11/14 11:48:02;;;;;;;;;1.60;1.00;;;;;21.50;89.68;97666.53;6216269;28;96921;-70
2023/11/14 11:51:20;;;;;;;;;2.00;2.00;;;;;20.93;92.90;97676.75;6176391;28;97055;-69
2023/11/14 11:54:34;;;;;;;;;1.00;1.00;;;;;19.97;96.55;97675.78;6166403;28;97198;-70
2023/11/14 11:57:39;;;;;;;;;2.00;2.00;;;;;19.70;99.54;97671.22;6198729;28;98605;-70
2023/11/14 12:00:42;;;;;;;;;1.00;1.00;;;;;19.08;100.00;97660.03;6172557;28;96611;-69
2023/11/14 12:03:46;;;;;;;;;3.40;3.00;;;;;18.94;100.00;97664.72;6194364;28;96829;-70
2023/11/14 12:06:49;;;;;;;;;1.20;1.00;;;;;18.71;100.00;97682.13;6215121;28;96332;-69
2023/11/14 12:09:53;;;;;;;;;2.00;2.00;;;;;18.56;100.00;97664.94;6196365;28;96837;-70
2023/11/14 12:12:59;;;;;;;;;1.00;1.00;;;;;18.47;100.00;97663.19;6210203;28;96349;-69
2023/11/14 12:16:04;;;;;;;;;1.00;1.00;;;;;18.67;100.00;97635.50;6185705;28;97620;-70
2023/11/14 12:19:08;;;;;;;;;3.00;2.25;;;;;19.24;100.00;97650.41;6196728;28;96857;-70
2023/11/14 12:22:12;;;;;;;;;2.00;2.00;;;;;19.91;100.00;97666.88;6184363;28;99013;-70
2023/11/14 12:25:15;;;;;;;;;1.00;1.00;;;;;20.20;100.00;97661.75;6192831;28;96911;-70
2023/11/14 12:28:20;;;;;;;;;3.00;2.40;;;;;19.87;99.96;97669.44;6178664;28;96716;-69
2023/11/14 12:31:27;;;;;;;;;2.00;1.00;;;;;19.27;100.00;97677.09;6177432;28;96891;-70
2023/11/14 12:34:31;;;;;;;;;2.40;2.40;;;;;19.03;100.00;97657.41;6195675;28;97042;-70
2023/11/14 12:37:35;;;;;;;;;2.00;1.40;;;;;18.70;100.00;97688.69;6186410;28;96456;-70
2023/11/14 12:40:38;;;;;;;;;3.00;2.60;;;;;18.41;100.00;97683.50;6194297;28;96937;-69
2023/11/14 12:43:43;;;;;;;;;4.00;3.00;;;;;18.31;100.00;97668.13;6194243;28;97300;-71
2023/11/14 12:46:51;;;;;;;;;3.00;3.00;;;;;18.38;100.00;97668.53;6193566;28;96859;-71
2023/11/14 12:49:55;;;;;;;;;3.00;2.00;;;;;18.34;100.00;97669.44;6199294;28;96602;-70
2023/11/14 12:52:58;;;;;;;;;2.00;1.00;;;;;18.01;100.00;97680.38;6199648;28;96409;-71
2023/11/14 12:56:02;;;;;;;;;2.40;2.40;;;;;17.92;100.00;97663.09;6187825;28;96852;-71
2023/11/14 12:59:08;;;;;;;;;2.40;2.40;;;;;17.78;100.00;97664.97;6205245;28;96600;-71
2023/11/14 13:02:12;;;;;;;;;2.60;2.00;;;;;17.41;100.00;97654.06;6190238;28;96429;-71
2023/11/14 13:05:15;;;;;;;;;4.00;4.00;;;;;17.36;100.00;97662.31;6212407;28;96374;-71
2023/11/14 13:08:18;;;;;;;;;3.00;3.00;;;;;17.29;100.00;97668.97;6213205;28;97081;-71
2023/11/14 13:11:22;;;;;;;;;2.00;2.00;;;;;17.09;100.00;97663.78;6206198;28;96532;-71
2023/11/14 13:14:26;;;;;;;;;2.40;2.00;;;;;16.91;100.00;97667.28;6201753;28;96627;-72
2023/11/14 13:17:30;;;;;;;;;2.50;2.00;;;;;16.71;100.00;97667.56;6179276;28;98240;-71
2023/11/14 13:20:33;;;;;;;;;3.40;3.40;;;;;16.55;100.00;97687.84;6177923;28;98364;-71
2023/11/14 13:23:37;;;;;;;;;2.00;2.00;;;;;16.54;100.00;97705.25;6210193;28;96354;-71
2023/11/14 13:26:41;;;;;;;;;3.00;3.00;;;;;16.43;100.00;97699.94;6186739;28;97600;-71
2023/11/14 13:29:46;;;;;;;;;3.40;3.40;;;;;16.31;100.00;97704.97;6178236;28;99247;-71
2023/11/14 13:32:49;;;;;;;;;2.00;2.00;;;;;16.41;100.00;97717.66;6197391;28;97338;-71
2023/11/14 13:35:53;;;;;;;;;3.00;2.60;;;;;16.45;100.00;97707.81;6198590;28;96326;-71
2023/11/14 13:38:56;;;;;;;;;2.00;2.00;;;;;16.29;100.00;97698.16;6178567;28;98590;-71
2023/11/14 13:41:59;;;;;;;;;3.20;2.00;;;;;16.28;100.00;97694.63;6193270;28;96797;-68
2023/11/14 13:45:05;;;;;;;;;2.25;2.00;;;;;16.28;100.00;97691.91;6183017;28;97519;-71
2023/11/14 13:48:09;;;;;;;;;3.80;3.00;;;;;16.33;100.00;97694.59;6195792;28;96431;-71
2023/11/14 13:51:13;;;;;;;;;4.60;4.00;;;;;16.07;100.00;97676.91;6170815;28;98514;-70
2023/11/14 13:54:19;;;;;;;;;2.00;2.00;;;;;16.13;100.00;97672.22;6204420;28;96321;-64
2023/11/14 13:57:23;;;;;;;;;4.00;3.60;;;;;16.10;100.00;97667.38;6206521;28;96768;-64
2023/11/14 14:00:29;;;;;;;;;4.00;4.00;;;;;16.13;100.00;97656.72;6212262;28;96364;-64
2023/11/14 14:03:33;;;;;;;;;2.20;2.20;;;;;15.93;100.00;97668.59;6207362;28;96973;-64
2023/11/14 14:06:36;;;;;;;;;3.60;3.60;;;;;15.99;100.00;97661.22;6197628;28;99260;-64
2023/11/14 14:09:40;;;;;;;;;4.00;4.00;;;;;15.93;100.00;97662.38;6207088;28;98549;-65
2023/11/14 14:12:43;;;;;;;;;3.00;3.00;;;;;15.99;100.00;97656.59;6220050;28;96456;-66
2023/11/14 14:15:48;;;;;;;;;1.75;1.75;;;;;15.99;100.00;97645.72;6212563;28;96318;-64
2023/11/14 14:18:51;;;;;;;;;3.00;3.00;;;;;15.86;100.00;97640.13;6184668;28;97457;-66
2023/11/14 14:21:54;;;;;;;;;4.75;2.00;;;;;15.93;100.00;97643.34;6205324;28;96885;-65